ADDS METAR Data INFO
IDs: Format: Raw Decoded Include TAF

Data at: 1144 UTC 17 Jul 2018

KPVJ 171135Z AUTO 00000KT 10SM CLR 24/22 A2999 RMK AO2 LTG DSNT N T02440217
KPVJ 171115Z AUTO 00000KT 10SM CLR 24/22 A2998 RMK AO2 T02430217
KPVJ 171055Z AUTO 00000KT 10SM CLR 24/22 A2998 RMK AO2 T02420217
KPVJ 171035Z AUTO 19003KT 10SM CLR 24/22 A2998 RMK AO2 LTG DSNT NE T02440217
KPVJ 171015Z AUTO 00000KT 10SM CLR 25/21 A2998 RMK AO2 LTG DSNT N T02450214
KPVJ 170955Z AUTO 00000KT 10SM CLR 25/22 A2997 RMK AO2 LTG DSNT N T02460216
KPVJ 170935Z AUTO 00000KT 10SM CLR 25/21 A2998 RMK AO2 T02500213
KPVJ 170915Z AUTO 12003KT 10SM CLR 25/22 A2997 RMK AO2 T02500216
KPVJ 170855Z AUTO 11003KT 10SM CLR 24/23 A2997 RMK AO2 T02410225
KPVJ 170835Z AUTO 00000KT 10SM CLR 25/22 A2997 RMK AO2 T02460221
KPVJ 170815Z AUTO 00000KT 10SM CLR 26/22 A2998 RMK AO2 T02550220
KPVJ 170755Z AUTO 00000KT 10SM CLR 25/23 A2998 RMK AO2 T02530225
KPVJ 170735Z AUTO 00000KT 10SM CLR 27/22 A2998 RMK AO2 LTG DSNT NW T02650217
KPVJ 170715Z AUTO 00000KT 10SM CLR 26/22 A2998 RMK AO2 T02610222
KPVJ 170655Z AUTO 00000KT 10SM CLR 26/22 A2999 RMK AO2 T02620221
KPVJ 170635Z AUTO 00000KT 10SM CLR 27/22 A2999 RMK AO2 T02700223
KPVJ 170615Z AUTO 00000KT 10SM CLR 27/23 A2999 RMK AO2 LTG DSNT NW T02650231
KPVJ 170555Z AUTO 00000KT 10SM CLR 27/23 A2999 RMK AO2 T02690230 10365 20269 403750222
KPVJ 170535Z AUTO 00000KT 10SM CLR 28/23 A2999 RMK AO2 T02750229
KPVJ 170515Z AUTO 00000KT 10SM CLR 28/23 A2998 RMK AO2 T02780230
KPVJ 170455Z AUTO 09003KT 10SM CLR 28/23 A2998 RMK AO2 T02820228
KPVJ 170435Z AUTO 08003KT 10SM CLR 29/23 A2999 RMK AO2 T02870225
KPVJ 170415Z AUTO 10003KT 10SM SCT080 29/23 A2999 RMK AO2 T02920225
KPVJ 170355Z AUTO 00000KT 10SM SCT080 SCT110 30/23 A2999 RMK AO2 T02950225
KPVJ 170335Z AUTO 08003KT 10SM SCT080 BKN110 30/22 A2998 RMK AO2 T03010224
KPVJ 170315Z AUTO 08003KT 10SM SCT120 30/22 A2998 RMK AO2 T03040223
KPVJ 170255Z AUTO 07003KT 10SM BKN110 31/22 A2997 RMK AO2 T03070222
KPVJ 170235Z AUTO 05004KT 10SM SCT110 31/22 A2997 RMK AO2 T03100220
KPVJ 170215Z AUTO 06003KT 10SM CLR 30/22 A2996 RMK AO2 T03040221
KPVJ 170155Z AUTO 00000KT 10SM CLR 32/21 A2995 RMK AO2 T03240214
KPVJ 170135Z AUTO 00000KT 10SM CLR 33/23 A2994 RMK AO2 T03260227
KPVJ 170115Z AUTO 00000KT 10SM CLR 34/21 A2994 RMK AO2 T03400212
KPVJ 170055Z AUTO 00000KT 10SM CLR 35/21 A2993 RMK AO2 T03500209
KPVJ 170035Z AUTO 00000KT 10SM CLR 36/21 A2993 RMK AO2 T03580207
KPVJ 170015Z AUTO 00000KT 10SM CLR 36/20 A2993 RMK AO2 T03630202
KPVJ 162355Z AUTO 16004KT 10SM CLR 37/20 A2993 RMK AO2 T03650202 10375 20341
KPVJ 162335Z AUTO 00000KT 10SM CLR 37/20 A2993 RMK AO2 T03670199
KPVJ 162315Z AUTO 00000KT 10SM CLR 36/20 A2993 RMK AO2 T03630195
KPVJ 162255Z AUTO 18004KT 10SM CLR 37/20 A2994 RMK AO2 T03680197
KPVJ 162235Z AUTO 19006KT 10SM CLR 37/21 A2993 RMK AO2 T03710207
KPVJ 162215Z AUTO 17006KT 140V200 10SM CLR 36/20 A2994 RMK AO2 T03630201
KPVJ 162155Z AUTO 16003KT 10SM CLR 37/20 A2994 RMK AO2 T03670201
KPVJ 162135Z AUTO 19003KT 10SM SCT110 37/20 A2995 RMK AO2 T03650204
KPVJ 162115Z AUTO 13005KT 10SM SCT075 SCT100 36/20 A2996 RMK AO2 T03600201
KPVJ 162055Z AUTO 20003KT 10SM SCT075 37/20 A2997 RMK AO2 T03700203
KPVJ 162035Z AUTO 20004KT 10SM CLR 37/21 A2997 RMK AO2 T03690205
KPVJ 162015Z AUTO 15003KT 10SM CLR 36/19 A2998 RMK AO2 T03560193
KPVJ 161955Z AUTO 14005KT 10SM CLR 37/20 A2998 RMK AO2 T03670199
KPVJ 161935Z AUTO 22006KT 10SM CLR 36/20 A3000 RMK AO2 T03610201
KPVJ 161915Z AUTO 17005KT 10SM CLR 36/21 A3001 RMK AO2 T03580211
KPVJ 161855Z AUTO 00000KT 10SM CLR 35/21 A3001 RMK AO2 T03470210
KPVJ 161835Z AUTO 00000KT 10SM CLR 35/20 A3001 RMK AO2 T03500204
KPVJ 161815Z AUTO 21003KT 10SM CLR 34/21 A3001 RMK AO2 T03430209
KPVJ 161755Z AUTO 33004KT 10SM CLR 34/20 A3002 RMK AO2 T03430202 10345 20230
KPVJ 161735Z AUTO 17003KT 10SM CLR 34/21 A3002 RMK AO2 T03430208
KPVJ 161715Z AUTO 28005KT 10SM CLR 34/21 A3002 RMK AO2 T03360212
KPVJ 161655Z AUTO 28003KT 10SM CLR 33/21 A3003 RMK AO2 T03290210
KPVJ 161635Z AUTO 29004KT 10SM CLR 33/21 A3003 RMK AO2 T03250207
KPVJ 161615Z AUTO 24006KT 10SM CLR 32/21 A3003 RMK AO2 T03230209
KPVJ 161555Z AUTO 23006KT 10SM CLR 32/21 A3003 RMK AO2 T03170210
KPVJ 161535Z AUTO 25006KT 10SM CLR 31/21 A3003 RMK AO2 T03100206
KPVJ 161515Z AUTO 24006KT 10SM CLR 30/21 A3003 RMK AO2 T03030209
KPVJ 161455Z AUTO 22006KT 10SM CLR 30/21 A3003 RMK AO2 T02990211
KPVJ 161435Z AUTO 21007KT 10SM CLR 29/21 A3003 RMK AO2 T02920210
KPVJ 161415Z AUTO 23005KT 10SM CLR 29/21 A3003 RMK AO2 T02860213
KPVJ 161355Z AUTO 21006KT 10SM CLR 28/22 A3002 RMK AO2 T02760217
KPVJ 161335Z AUTO 00000KT 10SM CLR 27/23 A3001 RMK AO2 T02650227
KPVJ 161315Z AUTO 17003KT 10SM CLR 26/23 A3001 RMK AO2 T02550231
KPVJ 161255Z AUTO 17003KT 10SM CLR 25/23 A3001 RMK AO2 T02450231
KPVJ 161235Z AUTO 00000KT 10SM CLR 24/23 A3000 RMK AO2 T02360233
KPVJ 161215Z AUTO 00000KT 10SM CLR 24/23 A3000 RMK AO2 T02350232
KPVJ 161155Z AUTO 00000KT 10SM CLR 23/23 A3000 RMK AO2 70006 T02340234 10251 20222
KPVJ 161135Z AUTO 00000KT 10SM CLR 22/22 A2999 RMK AO2 T02230223
KPVJ 161115Z AUTO 00000KT 10SM CLR 23/23 A2998 RMK AO2 T02270227
KPVJ 161055Z AUTO 00000KT 10SM CLR 23/23 A2998 RMK AO2 T02270227
KPVJ 161035Z AUTO 00000KT 10SM CLR 24/23 A2998 RMK AO2 T02350233
KPVJ 161015Z AUTO 00000KT 10SM CLR 24/24 A2997 RMK AO2 T02350235
KPVJ 160955Z AUTO 00000KT 10SM CLR 24/23 A2997 RMK AO2 T02390233
KPVJ 160935Z AUTO 00000KT 10SM CLR 24/23 A2997 RMK AO2 T02420230
KPVJ 160915Z AUTO 00000KT 10SM CLR 24/23 A2996 RMK AO2 T02420231
KPVJ 160855Z AUTO 00000KT 10SM CLR 24/24 A2996 RMK AO2 T02420235
KPVJ 160835Z AUTO 00000KT 10SM CLR 25/24 A2997 RMK AO2 T02450235
KPVJ 160815Z AUTO 00000KT 10SM CLR 25/24 A2997 RMK AO2 T02490236
KPVJ 160755Z AUTO 00000KT 10SM CLR 25/24 A2998 RMK AO2 T02500238
KPVJ 160735Z AUTO 00000KT 10SM CLR 25/25 A2998 RMK AO2 T02500249
KPVJ 160715Z AUTO 00000KT 10SM CLR 25/25 A2998 RMK AO2 T02500245
KPVJ 160655Z AUTO 15004KT 10SM CLR 24/24 A2998 RMK AO2 T02420242
KPVJ 160635Z AUTO 00000KT 10SM CLR 24/24 A2998 RMK AO2 T02390239
KPVJ 160615Z AUTO 00000KT 10SM CLR 24/24 A2998 RMK AO2 T02440244
KPVJ 160555Z AUTO 00000KT 10SM CLR 24/24 A2998 RMK AO2 60006 T02410241 10356 20241 403700241
KPVJ 160535Z AUTO 00000KT 10SM CLR 24/24 A2998 RMK AO2 T02410241
KPVJ 160515Z AUTO 00000KT 10SM CLR 24/24 A2998 RMK AO2 T02440244
KPVJ 160455Z AUTO 00000KT 10SM CLR 25/25 A2998 RMK AO2 T02470247
KPVJ 160435Z AUTO 00000KT 10SM CLR 24/24 A2998 RMK AO2 T02440244
KPVJ 160415Z AUTO 00000KT 10SM CLR 25/25 A2998 RMK AO2 T02480248
KPVJ 160355Z AUTO 00000KT 10SM CLR 26/25 A2998 RMK AO2 T02630245
KPVJ 160335Z AUTO 19003KT 10SM CLR 25/25 A2997 RMK AO2 T02520252
KPVJ 160315Z AUTO 00000KT 10SM CLR 26/26 A2996 RMK AO2 T02600255
KPVJ 160255Z AUTO 00000KT 10SM SCT110 26/26 A2996 RMK AO2 P0002 60006 T02610257
KPVJ 160235Z AUTO 00000KT 10SM SCT110 26/25 A2995 RMK AO2 P0001 T02610252
KPVJ 160215Z AUTO 00000KT 10SM CLR 27/25 A2994 RMK AO2 P0001 T02660249
KPVJ 160155Z AUTO 00000KT 10SM CLR 27/25 A2993 RMK AO2 P0003 T02720251
KPVJ 160135Z AUTO 00000KT 10SM SCT110 27/25 A2993 RMK AO2 LTG DSNT NW P0002 T02660249
KPVJ 160115Z AUTO 22005KT 10SM -RA SCT031 SCT039 BKN110 28/23 A2994 RMK AO2 LTG DSNT NW P0002 T02750233
KPVJ 160055Z AUTO 14005KT 5SM RA SCT009 BKN034 OVC090 27/23 A2993 RMK AO2 LTG DSNT S AND W P0001 T02680228
KPVJ 160035Z AUTO 17008KT 140V200 10SM BKN075 BKN090 31/19 A2993 RMK AO2 T03100194
KPVJ 160015Z AUTO 16008G19KT 10SM SCT075 30/20 A2993 RMK AO2 LTG DSNT SE AND S T02980196
KPVJ 152355Z AUTO 16005KT 10SM SCT075 36/21 A2991 RMK AO2 LTG DSNT S T03570206 10370 20323